sensor_id;sensor_type;location;lat;lon;timestamp;temperature;humidity
1812;DHT22;904;47.814;11.134;2023-01-19T00:01:05;2.60;57.60
1812;DHT22;904;47.814;11.134;2023-01-19T00:03:35;2.60;57.60
1812;DHT22;904;47.814;11.134;2023-01-19T00:06:04;2.60;57.70
1812;DHT22;904;47.814;11.134;2023-01-19T00:08:31;2.60;57.80
1812;DHT22;904;47.814;11.134;2023-01-19T00:10:59;2.60;57.70
1812;DHT22;904;47.814;11.134;2023-01-19T00:13:27;2.60;57.80
1812;DHT22;904;47.814;11.134;2023-01-19T00:15:54;2.60;57.70
1812;DHT22;904;47.814;11.134;2023-01-19T00:18:22;2.60;57.70
1812;DHT22;904;47.814;11.134;2023-01-19T00:20:51;2.70;57.70
1812;DHT22;904;47.814;11.134;2023-01-19T00:23:18;2.60;57.70
1812;DHT22;904;47.814;11.134;2023-01-19T00:25:45;2.60;57.70
1812;DHT22;904;47.814;11.134;2023-01-19T00:28:15;2.60;57.80
1812;DHT22;904;47.814;11.134;2023-01-19T00:30:43;2.70;58.00
1812;DHT22;904;47.814;11.134;2023-01-19T00:33:11;2.70;58.10
1812;DHT22;904;47.814;11.134;2023-01-19T00:35:40;2.70;58.10
1812;DHT22;904;47.814;11.134;2023-01-19T00:38:10;2.70;58.00
1812;DHT22;904;47.814;11.134;2023-01-19T00:40:37;2.70;58.00
1812;DHT22;904;47.814;11.134;2023-01-19T00:43:05;2.60;57.90
1812;DHT22;904;47.814;11.134;2023-01-19T00:45:32;2.60;57.90
1812;DHT22;904;47.814;11.134;2023-01-19T00:48:00;2.60;58.30
1812;DHT22;904;47.814;11.134;2023-01-19T00:50:28;2.60;58.40
1812;DHT22;904;47.814;11.134;2023-01-19T00:52:56;2.60;58.40
1812;DHT22;904;47.814;11.134;2023-01-19T00:55:27;2.60;58.40
1812;DHT22;904;47.814;11.134;2023-01-19T00:57:55;2.60;58.30
1812;DHT22;904;47.814;11.134;2023-01-19T01:00:23;2.60;58.30
1812;DHT22;904;47.814;11.134;2023-01-19T01:02:51;2.60;58.40
1812;DHT22;904;47.814;11.134;2023-01-19T01:05:19;2.60;58.30
1812;DHT22;904;47.814;11.134;2023-01-19T01:07:47;2.60;58.50
1812;DHT22;904;47.814;11.134;2023-01-19T01:10:17;2.60;58.70
1812;DHT22;904;47.814;11.134;2023-01-19T01:12:47;2.60;58.60
1812;DHT22;904;47.814;11.134;2023-01-19T01:15:16;2.60;58.60
1812;DHT22;904;47.814;11.134;2023-01-19T01:17:43;2.50;58.70
1812;DHT22;904;47.814;11.134;2023-01-19T01:20:16;2.50;58.80
1812;DHT22;904;47.814;11.134;2023-01-19T01:22:45;2.50;58.90
1812;DHT22;904;47.814;11.134;2023-01-19T01:25:13;2.50;58.90
1812;DHT22;904;47.814;11.134;2023-01-19T01:27:41;2.50;59.10
1812;DHT22;904;47.814;11.134;2023-01-19T01:30:12;2.50;59.30
1812;DHT22;904;47.814;11.134;2023-01-19T01:32:40;2.50;59.40
1812;DHT22;904;47.814;11.134;2023-01-19T01:35:08;2.50;59.60
1812;DHT22;904;47.814;11.134;2023-01-19T01:37:36;2.50;59.50
1812;DHT22;904;47.814;11.134;2023-01-19T01:40:04;2.50;59.60
1812;DHT22;904;47.814;11.134;2023-01-19T01:42:33;2.50;59.60
1812;DHT22;904;47.814;11.134;2023-01-19T01:45:03;2.50;59.60
1812;DHT22;904;47.814;11.134;2023-01-19T01:47:36;2.40;59.80
1812;DHT22;904;47.814;11.134;2023-01-19T01:50:08;2.50;59.80
1812;DHT22;904;47.814;11.134;2023-01-19T01:52:41;2.50;59.90
1812;DHT22;904;47.814;11.134;2023-01-19T01:55:11;2.50;60.10
1812;DHT22;904;47.814;11.134;2023-01-19T01:57:42;2.40;60.10
1812;DHT22;904;47.814;11.134;2023-01-19T02:00:11;2.50;60.30
1812;DHT22;904;47.814;11.134;2023-01-19T02:02:43;2.40;60.10
1812;DHT22;904;47.814;11.134;2023-01-19T02:05:19;2.40;60.30
1812;DHT22;904;47.814;11.134;2023-01-19T02:07:52;2.30;60.60
1812;DHT22;904;47.814;11.134;2023-01-19T02:10:39;2.30;61.20
1812;DHT22;904;47.814;11.134;2023-01-19T02:13:25;2.30;60.90
1812;DHT22;904;47.814;11.134;2023-01-19T02:15:55;2.30;61.40
1812;DHT22;904;47.814;11.134;2023-01-19T02:18:27;2.30;61.40
1812;DHT22;904;47.814;11.134;2023-01-19T02:21:00;2.30;61.20
1812;DHT22;904;47.814;11.134;2023-01-19T02:23:38;2.30;61.20
1812;DHT22;904;47.814;11.134;2023-01-19T02:26:07;2.20;61.20
1812;DHT22;904;47.814;11.134;2023-01-19T02:28:37;2.10;61.50
1812;DHT22;904;47.814;11.134;2023-01-19T02:31:07;2.10;61.70
1812;DHT22;904;47.814;11.134;2023-01-19T02:33:35;2.10;62.00
1812;DHT22;904;47.814;11.134;2023-01-19T02:36:04;2.10;62.30
1812;DHT22;904;47.814;11.134;2023-01-19T02:38:35;2.10;62.50
1812;DHT22;904;47.814;11.134;2023-01-19T02:41:06;2.20;62.80
1812;DHT22;904;47.814;11.134;2023-01-19T02:43:35;2.20;62.60
1812;DHT22;904;47.814;11.134;2023-01-19T02:46:04;2.20;62.70
1812;DHT22;904;47.814;11.134;2023-01-19T02:48:31;2.20;63.00
1812;DHT22;904;47.814;11.134;2023-01-19T02:51:00;2.10;63.00
1812;DHT22;904;47.814;11.134;2023-01-19T02:54:04;2.10;63.20
1812;DHT22;904;47.814;11.134;2023-01-19T02:57:04;2.10;63.10
1812;DHT22;904;47.814;11.134;2023-01-19T02:59:48;2.00;63.20
1812;DHT22;904;47.814;11.134;2023-01-19T03:02:29;2.00;63.20
1812;DHT22;904;47.814;11.134;2023-01-19T03:05:12;2.00;63.20
1812;DHT22;904;47.814;11.134;2023-01-19T03:07:49;2.00;63.30
1812;DHT22;904;47.814;11.134;2023-01-19T03:10:28;1.90;63.00
1812;DHT22;904;47.814;11.134;2023-01-19T03:12:59;1.90;63.60
1812;DHT22;904;47.814;11.134;2023-01-19T03:15:30;1.90;63.90
1812;DHT22;904;47.814;11.134;2023-01-19T03:18:01;1.90;64.10
1812;DHT22;904;47.814;11.134;2023-01-19T03:20:29;1.90;64.30
1812;DHT22;904;47.814;11.134;2023-01-19T03:22:59;1.80;64.80
1812;DHT22;904;47.814;11.134;2023-01-19T03:25:31;1.70;65.20
1812;DHT22;904;47.814;11.134;2023-01-19T03:28:01;1.70;65.30
1812;DHT22;904;47.814;11.134;2023-01-19T03:30:33;1.80;65.20
1812;DHT22;904;47.814;11.134;2023-01-19T03:33:06;1.80;65.10
1812;DHT22;904;47.814;11.134;2023-01-19T03:35:37;1.80;65.00
1812;DHT22;904;47.814;11.134;2023-01-19T03:38:08;1.80;65.00
1812;DHT22;904;47.814;11.134;2023-01-19T03:40:40;1.80;65.10
1812;DHT22;904;47.814;11.134;2023-01-19T03:43:08;1.80;65.00
1812;DHT22;904;47.814;11.134;2023-01-19T03:45:40;1.70;65.20
1812;DHT22;904;47.814;11.134;2023-01-19T03:48:09;1.70;65.60
1812;DHT22;904;47.814;11.134;2023-01-19T03:50:36;1.70;65.90
1812;DHT22;904;47.814;11.134;2023-01-19T03:53:09;1.70;65.80
1812;DHT22;904;47.814;11.134;2023-01-19T03:55:40;1.70;66.00
1812;DHT22;904;47.814;11.134;2023-01-19T03:58:08;1.80;66.20
1812;DHT22;904;47.814;11.134;2023-01-19T04:00:35;1.80;66.20
1812;DHT22;904;47.814;11.134;2023-01-19T04:03:03;1.80;66.10
1812;DHT22;904;47.814;11.134;2023-01-19T04:05:31;1.80;65.70
1812;DHT22;904;47.814;11.134;2023-01-19T04:07:58;1.80;65.70
1812;DHT22;904;47.814;11.134;2023-01-19T04:10:26;1.80;66.00
1812;DHT22;904;47.814;11.134;2023-01-19T04:12:58;1.80;66.00
1812;DHT22;904;47.814;11.134;2023-01-19T04:15:27;1.70;66.20
1812;DHT22;904;47.814;11.134;2023-01-19T04:17:56;1.80;66.50
1812;DHT22;904;47.814;11.134;2023-01-19T04:20:24;1.80;66.60
1812;DHT22;904;47.814;11.134;2023-01-19T04:22:53;1.80;66.20
1812;DHT22;904;47.814;11.134;2023-01-19T04:25:21;1.80;66.50
1812;DHT22;904;47.814;11.134;2023-01-19T04:27:51;1.80;66.70
1812;DHT22;904;47.814;11.134;2023-01-19T04:30:20;1.70;66.70
1812;DHT22;904;47.814;11.134;2023-01-19T04:32:48;1.70;66.70
1812;DHT22;904;47.814;11.134;2023-01-19T04:35:16;1.80;66.40
1812;DHT22;904;47.814;11.134;2023-01-19T04:37:44;1.80;65.70
1812;DHT22;904;47.814;11.134;2023-01-19T04:40:11;1.80;65.30
1812;DHT22;904;47.814;11.134;2023-01-19T04:42:42;1.80;64.40
1812;DHT22;904;47.814;11.134;2023-01-19T04:45:10;1.80;64.00
1812;DHT22;904;47.814;11.134;2023-01-19T04:47:39;1.70;63.50
1812;DHT22;904;47.814;11.134;2023-01-19T04:50:08;1.70;63.20
1812;DHT22;904;47.814;11.134;2023-01-19T04:52:39;1.70;62.80
1812;DHT22;904;47.814;11.134;2023-01-19T04:55:07;1.70;62.40
1812;DHT22;904;47.814;11.134;2023-01-19T04:57:35;1.70;62.10
1812;DHT22;904;47.814;11.134;2023-01-19T05:00:03;1.60;61.80
1812;DHT22;904;47.814;11.134;2023-01-19T05:02:33;1.60;61.80
1812;DHT22;904;47.814;11.134;2023-01-19T05:05:03;1.60;61.70
1812;DHT22;904;47.814;11.134;2023-01-19T05:07:30;1.50;61.20
1812;DHT22;904;47.814;11.134;2023-01-19T05:09:59;1.50;61.30
1812;DHT22;904;47.814;11.134;2023-01-19T05:12:27;1.50;61.30
1812;DHT22;904;47.814;11.134;2023-01-19T05:14:54;1.40;61.10
1812;DHT22;904;47.814;11.134;2023-01-19T05:17:22;1.40;60.90
1812;DHT22;904;47.814;11.134;2023-01-19T05:19:49;1.40;61.10
1812;DHT22;904;47.814;11.134;2023-01-19T05:22:18;1.40;60.90
1812;DHT22;904;47.814;11.134;2023-01-19T05:24:46;1.30;60.50
1812;DHT22;904;47.814;11.134;2023-01-19T05:27:13;1.30;60.30
1812;DHT22;904;47.814;11.134;2023-01-19T05:29:40;1.30;60.30
1812;DHT22;904;47.814;11.134;2023-01-19T05:32:08;1.20;60.10
1812;DHT22;904;47.814;11.134;2023-01-19T05:34:35;1.20;60.10
1812;DHT22;904;47.814;11.134;2023-01-19T05:37:03;1.20;60.30
1812;DHT22;904;47.814;11.134;2023-01-19T05:39:31;1.10;60.30
1812;DHT22;904;47.814;11.134;2023-01-19T05:41:58;1.10;60.20
1812;DHT22;904;47.814;11.134;2023-01-19T05:44:26;1.10;60.40
1812;DHT22;904;47.814;11.134;2023-01-19T05:46:53;1.00;60.40
1812;DHT22;904;47.814;11.134;2023-01-19T05:49:21;0.90;60.40
1812;DHT22;904;47.814;11.134;2023-01-19T05:51:48;1.00;60.90
1812;DHT22;904;47.814;11.134;2023-01-19T05:54:16;0.90;60.70
1812;DHT22;904;47.814;11.134;2023-01-19T05:56:45;0.90;60.70
1812;DHT22;904;47.814;11.134;2023-01-19T05:59:12;0.90;60.70
1812;DHT22;904;47.814;11.134;2023-01-19T06:01:40;0.90;60.60
1812;DHT22;904;47.814;11.134;2023-01-19T06:04:07;0.90;60.90
1812;DHT22;904;47.814;11.134;2023-01-19T06:06:34;0.90;60.90
1812;DHT22;904;47.814;11.134;2023-01-19T06:09:01;0.90;60.80
1812;DHT22;904;47.814;11.134;2023-01-19T06:11:29;0.90;60.80
1812;DHT22;904;47.814;11.134;2023-01-19T06:13:58;0.90;60.80
1812;DHT22;904;47.814;11.134;2023-01-19T06:16:25;0.90;60.70
1812;DHT22;904;47.814;11.134;2023-01-19T06:18:53;0.80;60.50
1812;DHT22;904;47.814;11.134;2023-01-19T06:21:20;0.80;60.70
1812;DHT22;904;47.814;11.134;2023-01-19T06:23:48;0.90;61.00
1812;DHT22;904;47.814;11.134;2023-01-19T06:26:16;0.90;61.00
1812;DHT22;904;47.814;11.134;2023-01-19T06:28:43;0.90;60.90
1812;DHT22;904;47.814;11.134;2023-01-19T06:31:13;0.90;60.80
1812;DHT22;904;47.814;11.134;2023-01-19T06:33:40;0.80;60.70
1812;DHT22;904;47.814;11.134;2023-01-19T06:36:08;0.70;60.90
1812;DHT22;904;47.814;11.134;2023-01-19T06:38:35;0.70;61.10
1812;DHT22;904;47.814;11.134;2023-01-19T06:41:04;0.70;60.90
1812;DHT22;904;47.814;11.134;2023-01-19T06:43:31;0.70;60.90
1812;DHT22;904;47.814;11.134;2023-01-19T06:45:58;0.70;61.00
1812;DHT22;904;47.814;11.134;2023-01-19T06:48:28;0.70;61.20
1812;DHT22;904;47.814;11.134;2023-01-19T06:50:55;0.50;61.50
1812;DHT22;904;47.814;11.134;2023-01-19T06:53:23;0.50;61.60
1812;DHT22;904;47.814;11.134;2023-01-19T06:55:52;0.50;61.50
1812;DHT22;904;47.814;11.134;2023-01-19T06:58:19;0.50;61.60
1812;DHT22;904;47.814;11.134;2023-01-19T07:00:46;0.50;61.60
1812;DHT22;904;47.814;11.134;2023-01-19T07:03:18;0.50;61.90
1812;DHT22;904;47.814;11.134;2023-01-19T07:05:50;0.50;62.00
1812;DHT22;904;47.814;11.134;2023-01-19T07:08:17;0.40;62.00
1812;DHT22;904;47.814;11.134;2023-01-19T07:10:44;0.30;62.00
1812;DHT22;904;47.814;11.134;2023-01-19T07:13:11;0.30;62.40
1812;DHT22;904;47.814;11.134;2023-01-19T07:15:38;0.30;62.50
1812;DHT22;904;47.814;11.134;2023-01-19T07:18:05;0.40;62.70
1812;DHT22;904;47.814;11.134;2023-01-19T07:20:34;0.40;62.80
1812;DHT22;904;47.814;11.134;2023-01-19T07:23:03;0.40;62.80
1812;DHT22;904;47.814;11.134;2023-01-19T07:25:30;0.50;63.00
1812;DHT22;904;47.814;11.134;2023-01-19T07:27:57;0.50;62.80
1812;DHT22;904;47.814;11.134;2023-01-19T07:30:25;0.50;62.70
1812;DHT22;904;47.814;11.134;2023-01-19T07:32:54;0.60;62.80
1812;DHT22;904;47.814;11.134;2023-01-19T07:35:21;0.60;62.70
1812;DHT22;904;47.814;11.134;2023-01-19T07:37:48;0.70;62.60
1812;DHT22;904;47.814;11.134;2023-01-19T07:40:18;0.80;62.40
1812;DHT22;904;47.814;11.134;2023-01-19T07:42:45;0.80;62.20
1812;DHT22;904;47.814;11.134;2023-01-19T07:45:13;0.90;62.40
1812;DHT22;904;47.814;11.134;2023-01-19T07:47:42;0.90;61.90
1812;DHT22;904;47.814;11.134;2023-01-19T07:50:12;0.90;61.40
1812;DHT22;904;47.814;11.134;2023-01-19T07:52:40;1.00;60.90
1812;DHT22;904;47.814;11.134;2023-01-19T07:55:10;1.00;60.60
1812;DHT22;904;47.814;11.134;2023-01-19T07:57:38;1.00;60.70
1812;DHT22;904;47.814;11.134;2023-01-19T08:00:07;1.00;59.90
1812;DHT22;904;47.814;11.134;2023-01-19T08:02:34;1.00;60.20
1812;DHT22;904;47.814;11.134;2023-01-19T08:05:02;1.00;60.50
1812;DHT22;904;47.814;11.134;2023-01-19T08:07:29;1.00;60.50
1812;DHT22;904;47.814;11.134;2023-01-19T08:09:56;1.00;60.50
1812;DHT22;904;47.814;11.134;2023-01-19T08:12:23;1.10;59.90
1812;DHT22;904;47.814;11.134;2023-01-19T08:14:52;1.30;60.00
1812;DHT22;904;47.814;11.134;2023-01-19T08:17:19;1.50;59.90
1812;DHT22;904;47.814;11.134;2023-01-19T08:19:46;1.60;59.70
1812;DHT22;904;47.814;11.134;2023-01-19T08:22:13;1.60;59.00
1812;DHT22;904;47.814;11.134;2023-01-19T08:24:40;1.70;58.90
1812;DHT22;904;47.814;11.134;2023-01-19T08:27:07;1.80;58.90
1812;DHT22;904;47.814;11.134;2023-01-19T08:29:35;1.90;58.20
1812;DHT22;904;47.814;11.134;2023-01-19T08:32:04;1.80;58.10
1812;DHT22;904;47.814;11.134;2023-01-19T08:34:31;1.90;58.60
1812;DHT22;904;47.814;11.134;2023-01-19T08:36:58;2.10;58.70
1812;DHT22;904;47.814;11.134;2023-01-19T08:39:25;2.20;58.10
1812;DHT22;904;47.814;11.134;2023-01-19T08:41:52;2.30;57.30
1812;DHT22;904;47.814;11.134;2023-01-19T08:44:19;2.40;57.40
1812;DHT22;904;47.814;11.134;2023-01-19T08:46:46;2.50;57.60
1812;DHT22;904;47.814;11.134;2023-01-19T08:49:15;2.70;57.50
1812;DHT22;904;47.814;11.134;2023-01-19T08:51:42;3.00;57.20
1812;DHT22;904;47.814;11.134;2023-01-19T08:54:11;3.30;57.10
1812;DHT22;904;47.814;11.134;2023-01-19T08:56:38;3.60;56.60
1812;DHT22;904;47.814;11.134;2023-01-19T08:59:05;4.00;56.30
1812;DHT22;904;47.814;11.134;2023-01-19T09:01:32;4.50;56.30
1812;DHT22;904;47.814;11.134;2023-01-19T09:03:59;4.90;54.80
1812;DHT22;904;47.814;11.134;2023-01-19T09:06:27;5.30;54.60
1812;DHT22;904;47.814;11.134;2023-01-19T09:08:54;5.60;52.90
1812;DHT22;904;47.814;11.134;2023-01-19T09:11:22;5.80;51.60
1812;DHT22;904;47.814;11.134;2023-01-19T09:13:49;6.00;51.70
1812;DHT22;904;47.814;11.134;2023-01-19T09:16:15;6.30;50.60
1812;DHT22;904;47.814;11.134;2023-01-19T09:18:43;6.40;48.30
1812;DHT22;904;47.814;11.134;2023-01-19T09:21:10;6.50;48.30
1812;DHT22;904;47.814;11.134;2023-01-19T09:23:39;6.60;48.40
1812;DHT22;904;47.814;11.134;2023-01-19T09:26:06;6.70;47.80
1812;DHT22;904;47.814;11.134;2023-01-19T09:28:33;6.80;46.80
1812;DHT22;904;47.814;11.134;2023-01-19T09:31:04;7.00;46.60
1812;DHT22;904;47.814;11.134;2023-01-19T09:33:32;7.20;46.20
1812;DHT22;904;47.814;11.134;2023-01-19T09:35:59;7.40;45.50
1812;DHT22;904;47.814;11.134;2023-01-19T09:38:26;7.50;45.00
1812;DHT22;904;47.814;11.134;2023-01-19T09:40:57;7.60;44.60
1812;DHT22;904;47.814;11.134;2023-01-19T09:43:36;7.60;43.60
1812;DHT22;904;47.814;11.134;2023-01-19T09:46:10;7.60;43.60
1812;DHT22;904;47.814;11.134;2023-01-19T09:48:44;7.70;42.90
1812;DHT22;904;47.814;11.134;2023-01-19T09:51:15;7.90;43.30
1812;DHT22;904;47.814;11.134;2023-01-19T09:54:02;8.10;42.40
1812;DHT22;904;47.814;11.134;2023-01-19T09:56:32;8.10;40.20
1812;DHT22;904;47.814;11.134;2023-01-19T09:59:00;8.20;41.00
1812;DHT22;904;47.814;11.134;2023-01-19T10:01:39;8.20;40.00
1812;DHT22;904;47.814;11.134;2023-01-19T10:04:29;8.10;40.00
1812;DHT22;904;47.814;11.134;2023-01-19T10:07:06;8.10;40.70
1812;DHT22;904;47.814;11.134;2023-01-19T10:09:44;8.20;40.60
1812;DHT22;904;47.814;11.134;2023-01-19T10:12:24;8.20;40.60
1812;DHT22;904;47.814;11.134;2023-01-19T10:15:01;8.30;39.00
1812;DHT22;904;47.814;11.134;2023-01-19T10:17:37;8.20;37.70
1812;DHT22;904;47.814;11.134;2023-01-19T10:20:14;7.90;37.00
1812;DHT22;904;47.814;11.134;2023-01-19T10:22:45;7.80;37.90
1812;DHT22;904;47.814;11.134;2023-01-19T10:25:17;7.60;38.50
1812;DHT22;904;47.814;11.134;2023-01-19T10:27:47;7.70;39.10
1812;DHT22;904;47.814;11.134;2023-01-19T10:30:19;8.00;39.80
1812;DHT22;904;47.814;11.134;2023-01-19T10:32:48;8.20;37.90
1812;DHT22;904;47.814;11.134;2023-01-19T10:35:18;8.30;38.50
1812;DHT22;904;47.814;11.134;2023-01-19T10:37:49;8.50;38.50
1812;DHT22;904;47.814;11.134;2023-01-19T10:40:24;8.70;37.90
1812;DHT22;904;47.814;11.134;2023-01-19T10:42:55;8.70;37.10
1812;DHT22;904;47.814;11.134;2023-01-19T10:45:24;8.60;36.90
1812;DHT22;904;47.814;11.134;2023-01-19T10:47:54;8.50;36.50
1812;DHT22;904;47.814;11.134;2023-01-19T10:50:26;8.60;37.10
1812;DHT22;904;47.814;11.134;2023-01-19T10:52:56;8.70;36.60
1812;DHT22;904;47.814;11.134;2023-01-19T10:55:26;8.80;36.80
1812;DHT22;904;47.814;11.134;2023-01-19T10:57:55;8.90;35.50
1812;DHT22;904;47.814;11.134;2023-01-19T11:00:34;8.90;35.00
1812;DHT22;904;47.814;11.134;2023-01-19T11:03:03;8.70;33.80
1812;DHT22;904;47.814;11.134;2023-01-19T11:05:34;8.70;34.70
1812;DHT22;904;47.814;11.134;2023-01-19T11:08:21;8.80;35.00
1812;DHT22;904;47.814;11.134;2023-01-19T11:10:51;8.90;34.20
1812;DHT22;904;47.814;11.134;2023-01-19T11:13:21;9.00;34.60
1812;DHT22;904;47.814;11.134;2023-01-19T11:15:52;9.30;35.20
1812;DHT22;904;47.814;11.134;2023-01-19T11:18:24;9.50;34.60
1812;DHT22;904;47.814;11.134;2023-01-19T11:20:54;9.70;35.00
1812;DHT22;904;47.814;11.134;2023-01-19T11:23:25;10.00;33.70
1812;DHT22;904;47.814;11.134;2023-01-19T11:25:56;10.10;32.60
1812;DHT22;904;47.814;11.134;2023-01-19T11:28:27;10.20;31.60
1812;DHT22;904;47.814;11.134;2023-01-19T11:30:57;10.10;31.30
1812;DHT22;904;47.814;11.134;2023-01-19T11:33:25;10.10;31.70
1812;DHT22;904;47.814;11.134;2023-01-19T11:36:02;10.10;30.50
1812;DHT22;904;47.814;11.134;2023-01-19T11:38:29;10.00;30.90
1812;DHT22;904;47.814;11.134;2023-01-19T11:40:58;9.70;31.30
1812;DHT22;904;47.814;11.134;2023-01-19T11:43:29;9.50;32.00
1812;DHT22;904;47.814;11.134;2023-01-19T11:45:56;9.30;31.80
1812;DHT22;904;47.814;11.134;2023-01-19T11:48:29;9.10;31.70
1812;DHT22;904;47.814;11.134;2023-01-19T11:51:12;8.90;32.00
1812;DHT22;904;47.814;11.134;2023-01-19T11:53:43;8.70;32.40
1812;DHT22;904;47.814;11.134;2023-01-19T11:56:13;8.50;32.30
1812;DHT22;904;47.814;11.134;2023-01-19T11:58:43;8.40;32.40
1812;DHT22;904;47.814;11.134;2023-01-19T12:01:17;8.20;32.10
1812;DHT22;904;47.814;11.134;2023-01-19T12:03:50;8.00;32.30
1812;DHT22;904;47.814;11.134;2023-01-19T12:06:20;7.80;33.30
1812;DHT22;904;47.814;11.134;2023-01-19T12:08:52;7.80;33.00
1812;DHT22;904;47.814;11.134;2023-01-19T12:11:24;7.50;32.70
1812;DHT22;904;47.814;11.134;2023-01-19T12:14:00;7.50;33.30
1812;DHT22;904;47.814;11.134;2023-01-19T12:16:29;7.30;32.40
1812;DHT22;904;47.814;11.134;2023-01-19T12:19:00;7.30;33.30
1812;DHT22;904;47.814;11.134;2023-01-19T12:21:28;7.20;32.70
1812;DHT22;904;47.814;11.134;2023-01-19T12:24:02;6.70;33.60
1812;DHT22;904;47.814;11.134;2023-01-19T12:26:35;6.80;34.60
1812;DHT22;904;47.814;11.134;2023-01-19T12:29:10;6.70;34.70
1812;DHT22;904;47.814;11.134;2023-01-19T12:31:38;6.70;34.70
1812;DHT22;904;47.814;11.134;2023-01-19T12:34:35;6.70;35.30
1812;DHT22;904;47.814;11.134;2023-01-19T12:37:06;6.80;35.10
1812;DHT22;904;47.814;11.134;2023-01-19T12:39:53;6.90;34.30
1812;DHT22;904;47.814;11.134;2023-01-19T12:42:22;7.00;33.70
1812;DHT22;904;47.814;11.134;2023-01-19T12:45:02;7.10;32.70
1812;DHT22;904;47.814;11.134;2023-01-19T12:47:30;7.10;32.40
1812;DHT22;904;47.814;11.134;2023-01-19T12:49:58;7.10;32.20
1812;DHT22;904;47.814;11.134;2023-01-19T12:52:32;7.20;32.00
1812;DHT22;904;47.814;11.134;2023-01-19T12:55:03;7.30;31.90
1812;DHT22;904;47.814;11.134;2023-01-19T12:57:36;7.30;31.20
1812;DHT22;904;47.814;11.134;2023-01-19T13:00:07;7.40;31.60
1812;DHT22;904;47.814;11.134;2023-01-19T13:02:56;7.40;30.80
1812;DHT22;904;47.814;11.134;2023-01-19T13:05:48;7.40;30.40
1812;DHT22;904;47.814;11.134;2023-01-19T13:08:20;7.40;29.60
1812;DHT22;904;47.814;11.134;2023-01-19T13:11:18;7.30;29.00
1812;DHT22;904;47.814;11.134;2023-01-19T13:17:15;7.00;29.50
1812;DHT22;904;47.814;11.134;2023-01-19T13:19:48;7.00;30.00
1812;DHT22;904;47.814;11.134;2023-01-19T13:22:51;7.00;30.00
1812;DHT22;904;47.814;11.134;2023-01-19T13:25:30;7.00;29.50
1812;DHT22;904;47.814;11.134;2023-01-19T13:27:58;6.90;29.60
1812;DHT22;904;47.814;11.134;2023-01-19T13:30:27;6.90;29.90
1812;DHT22;904;47.814;11.134;2023-01-19T13:33:00;6.80;29.60
1812;DHT22;904;47.814;11.134;2023-01-19T13:35:29;6.80;29.10
1812;DHT22;904;47.814;11.134;2023-01-19T13:37:56;6.80;29.60
1812;DHT22;904;47.814;11.134;2023-01-19T13:40:36;6.80;29.60
1812;DHT22;904;47.814;11.134;2023-01-19T13:43:06;6.70;30.00
1812;DHT22;904;47.814;11.134;2023-01-19T13:45:39;6.70;30.00
1812;DHT22;904;47.814;11.134;2023-01-19T13:48:14;6.70;30.50
1812;DHT22;904;47.814;11.134;2023-01-19T13:50:41;6.60;30.40
1812;DHT22;904;47.814;11.134;2023-01-19T13:53:16;6.50;30.50
1812;DHT22;904;47.814;11.134;2023-01-19T13:55:45;6.40;30.60
1812;DHT22;904;47.814;11.134;2023-01-19T13:58:28;6.40;30.10
1812;DHT22;904;47.814;11.134;2023-01-19T14:00:56;6.30;30.10
1812;DHT22;904;47.814;11.134;2023-01-19T14:03:25;6.20;30.00
1812;DHT22;904;47.814;11.134;2023-01-19T14:05:53;6.20;30.00
1812;DHT22;904;47.814;11.134;2023-01-19T14:08:20;6.20;30.60
1812;DHT22;904;47.814;11.134;2023-01-19T14:11:00;6.10;30.10
1812;DHT22;904;47.814;11.134;2023-01-19T14:13:28;6.10;30.40
1812;DHT22;904;47.814;11.134;2023-01-19T14:15:57;6.00;30.50
1812;DHT22;904;47.814;11.134;2023-01-19T14:18:27;6.00;30.70
1812;DHT22;904;47.814;11.134;2023-01-19T14:20:57;5.90;30.60
1812;DHT22;904;47.814;11.134;2023-01-19T14:23:43;5.80;30.30
1812;DHT22;904;47.814;11.134;2023-01-19T14:26:37;5.60;31.10
1812;DHT22;904;47.814;11.134;2023-01-19T14:29:13;5.60;30.80
1812;DHT22;904;47.814;11.134;2023-01-19T14:31:43;5.40;31.10
1812;DHT22;904;47.814;11.134;2023-01-19T14:34:33;5.40;31.50
1812;DHT22;904;47.814;11.134;2023-01-19T14:37:02;5.30;32.00
1812;DHT22;904;47.814;11.134;2023-01-19T14:39:32;5.20;31.90
1812;DHT22;904;47.814;11.134;2023-01-19T14:42:00;5.20;32.40
1812;DHT22;904;47.814;11.134;2023-01-19T14:44:31;5.10;32.60
1812;DHT22;904;47.814;11.134;2023-01-19T14:46:59;5.10;32.70
1812;DHT22;904;47.814;11.134;2023-01-19T14:49:30;5.00;32.60
1812;DHT22;904;47.814;11.134;2023-01-19T14:52:01;5.00;32.80
1812;DHT22;904;47.814;11.134;2023-01-19T14:54:33;4.90;32.80
1812;DHT22;904;47.814;11.134;2023-01-19T14:57:01;4.80;32.80
1812;DHT22;904;47.814;11.134;2023-01-19T14:59:28;4.80;32.90
1812;DHT22;904;47.814;11.134;2023-01-19T15:01:55;4.70;33.40
1812;DHT22;904;47.814;11.134;2023-01-19T15:04:24;4.60;33.10
1812;DHT22;904;47.814;11.134;2023-01-19T15:06:51;4.60;33.40
1812;DHT22;904;47.814;11.134;2023-01-19T15:09:19;4.50;33.90
1812;DHT22;904;47.814;11.134;2023-01-19T15:11:47;4.40;34.30
1812;DHT22;904;47.814;11.134;2023-01-19T15:14:16;4.40;34.30
1812;DHT22;904;47.814;11.134;2023-01-19T15:16:44;4.40;34.70
1812;DHT22;904;47.814;11.134;2023-01-19T15:19:16;4.30;34.90
1812;DHT22;904;47.814;11.134;2023-01-19T15:21:43;4.20;35.80
1812;DHT22;904;47.814;11.134;2023-01-19T15:24:12;4.20;35.10
1812;DHT22;904;47.814;11.134;2023-01-19T15:26:41;4.10;35.40
1812;DHT22;904;47.814;11.134;2023-01-19T15:29:21;4.10;35.70
1812;DHT22;904;47.814;11.134;2023-01-19T15:31:48;4.00;35.90
1812;DHT22;904;47.814;11.134;2023-01-19T15:34:16;3.90;36.00
1812;DHT22;904;47.814;11.134;2023-01-19T15:36:43;3.90;36.10
1812;DHT22;904;47.814;11.134;2023-01-19T15:39:12;3.90;36.10
1812;DHT22;904;47.814;11.134;2023-01-19T15:41:40;3.80;36.30
1812;DHT22;904;47.814;11.134;2023-01-19T15:44:08;3.80;36.80
1812;DHT22;904;47.814;11.134;2023-01-19T15:46:37;3.70;37.00
1812;DHT22;904;47.814;11.134;2023-01-19T15:49:04;3.70;37.20
1812;DHT22;904;47.814;11.134;2023-01-19T15:51:31;3.60;37.20
1812;DHT22;904;47.814;11.134;2023-01-19T15:53:58;3.60;37.40
1812;DHT22;904;47.814;11.134;2023-01-19T15:56:26;3.50;37.60
1812;DHT22;904;47.814;11.134;2023-01-19T15:58:56;3.40;37.50
1812;DHT22;904;47.814;11.134;2023-01-19T16:01:25;3.40;37.70
1812;DHT22;904;47.814;11.134;2023-01-19T16:03:57;3.30;37.90
1812;DHT22;904;47.814;11.134;2023-01-19T16:06:25;3.20;38.10
1812;DHT22;904;47.814;11.134;2023-01-19T16:08:53;3.20;38.30
1812;DHT22;904;47.814;11.134;2023-01-19T16:11:25;3.10;38.40
1812;DHT22;904;47.814;11.134;2023-01-19T16:13:52;3.10;38.80
1812;DHT22;904;47.814;11.134;2023-01-19T16:16:22;3.00;39.10
1812;DHT22;904;47.814;11.134;2023-01-19T16:18:49;3.00;39.40
1812;DHT22;904;47.814;11.134;2023-01-19T16:21:17;2.90;39.40
1812;DHT22;904;47.814;11.134;2023-01-19T16:23:44;2.90;39.50
1812;DHT22;904;47.814;11.134;2023-01-19T16:26:24;2.90;39.70
1812;DHT22;904;47.814;11.134;2023-01-19T16:28:51;2.80;39.70
1812;DHT22;904;47.814;11.134;2023-01-19T16:31:20;2.80;39.90
1812;DHT22;904;47.814;11.134;2023-01-19T16:33:47;2.80;40.20
1812;DHT22;904;47.814;11.134;2023-01-19T16:36:23;2.70;40.30
1812;DHT22;904;47.814;11.134;2023-01-19T16:38:51;2.70;40.40
1812;DHT22;904;47.814;11.134;2023-01-19T16:41:19;2.70;40.30